Time;durP1;ratioP1;P1;durP2;ratioP2;P2;SDS_P1;SDS_P2;PMS_P1;PMS_P2;Temp;Humidity;BMP_temperature;BMP_pressure;BME280_temperature;BME280_humidity;BME280_pressure;Samples;Min_cycle;Max_cycle;Signal;HPM_P1;HPM_P2
2022/08/20 07:58:15;;;;;;;3.47;3.17;;;;;;;25.63;51.45;100370.53;10295233;27;44650;-61
2022/08/20 08:03:08;;;;;;;5.07;2.90;;;;;;;25.75;51.22;100375.25;10246261;27;65616;-61
2022/08/20 08:08:00;;;;;;;3.75;3.38;;;;;;;25.73;51.50;100377.56;10221924;27;65634;-61
2022/08/20 08:12:54;;;;;;;3.60;3.30;;;;;;;25.86;51.28;100376.41;10234394;27;65506;-61
2022/08/20 08:17:48;;;;;;;3.45;3.17;;;;;;;25.98;50.68;100372.78;10240346;27;64865;-61
2022/08/20 08:22:41;;;;;;;3.70;3.40;;;;;;;26.02;50.68;100377.28;10237186;27;66261;-60
2022/08/20 08:27:34;;;;;;;3.60;3.30;;;;;;;26.12;51.07;100374.00;10222351;27;65529;-62
2022/08/20 08:32:26;;;;;;;5.05;3.80;;;;;;;26.24;51.55;100373.16;10240544;27;65405;-66
2022/08/20 08:37:19;;;;;;;3.85;3.58;;;;;;;26.39;50.37;100371.63;10237448;27;65697;-67
2022/08/20 08:42:19;;;;;;;4.22;3.60;;;;;;;26.54;50.27;100376.41;10211331;27;66352;-65
2022/08/20 08:47:17;;;;;;;3.55;3.25;;;;;;;26.86;48.44;100374.53;10232149;27;66550;-65
2022/08/20 08:52:12;;;;;;;3.40;3.10;;;;;;;27.10;47.71;100368.03;10218298;27;65553;-64
2022/08/20 08:57:06;;;;;;;4.00;3.20;;;;;;;27.15;47.61;100376.09;10220849;27;66306;-65
2022/08/20 09:02:01;;;;;;;3.78;2.90;;;;;;;27.53;47.06;100358.75;10206737;27;65870;-62
2022/08/20 09:06:53;;;;;;;3.55;3.25;;;;;;;27.02;48.27;100369.81;10210395;27;65700;-62
2022/08/20 09:11:46;;;;;;;3.80;3.33;;;;;;;27.06;47.84;100365.13;10203821;27;66393;-62
2022/08/20 09:16:40;;;;;;;4.22;3.38;;;;;;;26.93;48.60;100364.41;10189515;27;65663;-67
2022/08/20 09:21:32;;;;;;;3.17;2.97;;;;;;;26.58;49.26;100372.59;10187726;27;66841;-62
2022/08/20 09:26:24;;;;;;;2.63;2.42;;;;;;;26.57;48.79;100364.59;10200215;27;65511;-62
2022/08/20 09:31:16;;;;;;;2.88;2.33;;;;;;;26.51;48.99;100364.06;10185068;27;66019;-67
2022/08/20 09:36:10;;;;;;;2.97;2.78;;;;;;;26.54;49.15;100371.66;10171749;27;66937;-67
2022/08/20 09:41:02;;;;;;;2.33;2.22;;;;;;;26.74;48.79;100355.13;10183276;27;66443;-67
2022/08/20 09:45:54;;;;;;;3.67;2.20;;;;;;;26.82;48.14;100356.94;10192644;27;65106;-67
2022/08/20 09:50:47;;;;;;;2.45;2.25;;;;;;;26.82;48.51;100373.63;10184294;27;65513;-67
2022/08/20 09:55:42;;;;;;;3.03;2.25;;;;;;;26.59;49.60;100376.19;10202339;27;66656;-67
2022/08/20 10:00:34;;;;;;;3.58;2.22;;;;;;;26.45;50.28;100370.22;10200832;27;66359;-67
2022/08/20 10:05:26;;;;;;;5.15;2.22;;;;;;;26.60;49.98;100375.81;10223402;27;65702;-67
2022/08/20 10:10:18;;;;;;;2.90;2.20;;;;;;;26.61;50.02;100371.06;10210037;27;65501;-66
2022/08/20 10:15:12;;;;;;;3.33;1.90;;;;;;;26.64;49.93;100365.59;10205916;27;65551;-67
2022/08/20 10:20:05;;;;;;;3.75;2.05;;;;;;;26.65;50.56;100370.00;10195516;27;66433;-65
2022/08/20 10:24:57;;;;;;;5.55;2.35;;;;;;;26.68;50.76;100372.06;10174031;27;65570;-66
2022/08/20 10:29:49;;;;;;;4.78;1.92;;;;;;;26.86;50.20;100366.16;10202889;27;65388;-65
2022/08/20 10:34:43;;;;;;;4.55;2.10;;;;;;;27.01;50.01;100357.06;10189976;27;65030;-68
2022/08/20 10:39:35;;;;;;;6.28;2.20;;;;;;;27.00;49.26;100344.31;10187152;27;66139;-69
2022/08/20 10:44:28;;;;;;;4.13;1.90;;;;;;;27.08;49.01;100346.09;10185390;27;66199;-70
2022/08/20 10:49:20;;;;;;;2.90;1.88;;;;;;;27.16;49.14;100339.56;10194002;27;65299;-69
2022/08/20 10:54:14;;;;;;;4.90;1.90;;;;;;;27.23;48.80;100330.56;10206806;27;66139;-68
2022/08/20 10:59:06;;;;;;;3.67;1.60;;;;;;;27.26;49.13;100332.66;10195872;27;65227;-70
2022/08/20 11:03:58;;;;;;;2.80;1.70;;;;;;;27.15;49.14;100331.56;10199471;27;65489;-70
2022/08/20 11:08:50;;;;;;;1.40;1.30;;;;;;;27.12;48.60;100333.09;10192881;27;66296;-70
2022/08/20 11:13:43;;;;;;;2.75;1.30;;;;;;;27.15;49.32;100334.34;10199442;27;64599;-70
2022/08/20 11:18:35;;;;;;;2.50;1.60;;;;;;;27.16;48.87;100330.41;10193552;27;65447;-70
2022/08/20 11:23:27;;;;;;;1.58;1.40;;;;;;;27.13;48.77;100325.53;10196426;27;65729;-71
2022/08/20 11:28:19;;;;;;;1.35;1.25;;;;;;;27.13;48.64;100328.31;10204572;27;66394;-72
2022/08/20 11:33:13;;;;;;;2.03;1.30;;;;;;;27.17;48.48;100332.81;10193369;27;65520;-75
2022/08/20 11:38:05;;;;;;;5.28;1.65;;;;;;;27.16;48.34;100333.19;10180911;27;66316;-76
2022/08/20 11:42:57;;;;;;;3.10;1.55;;;;;;;27.18;48.56;100326.09;10202543;27;66306;-76
2022/08/20 11:47:49;;;;;;;4.20;1.20;;;;;;;27.19;48.09;100319.38;10206812;27;66505;-76
2022/08/20 11:52:43;;;;;;;2.72;1.20;;;;;;;27.20;47.90;100311.78;10207765;27;65663;-76
2022/08/20 11:57:35;;;;;;;1.42;1.25;;;;;;;27.21;47.88;100314.22;10194223;27;65569;-78
2022/08/20 12:02:27;;;;;;;1.85;1.30;;;;;;;27.21;47.74;100311.44;10205421;27;66467;-77
2022/08/20 12:07:20;;;;;;;4.35;1.25;;;;;;;27.22;47.91;100303.91;10205804;27;66346;-76
2022/08/20 12:12:14;;;;;;;1.85;1.13;;;;;;;27.15;47.87;100303.72;10207315;27;66619;-76
2022/08/20 12:17:09;;;;;;;1.20;1.10;;;;;;;27.16;47.83;100299.78;10202727;27;63911;-75
2022/08/20 12:22:01;;;;;;;1.55;1.30;;;;;;;27.17;48.03;100291.06;10207623;27;66407;-75
2022/08/20 12:26:53;;;;;;;1.50;1.30;;;;;;;27.20;47.69;100289.53;10206778;27;66384;-76
2022/08/20 12:31:47;;;;;;;2.30;1.33;;;;;;;27.19;47.99;100290.72;10208740;27;66451;-76
2022/08/20 12:36:39;;;;;;;2.50;1.40;;;;;;;27.20;47.66;100281.97;10182344;27;65736;-76
2022/08/20 12:41:31;;;;;;;1.80;1.30;;;;;;;27.22;47.81;100284.41;10173784;27;66443;-76
2022/08/20 12:46:24;;;;;;;2.38;1.10;;;;;;;27.18;47.81;100281.56;10171525;27;66434;-76
2022/08/20 12:51:17;;;;;;;2.47;1.20;;;;;;;27.18;47.52;100275.19;10175467;27;66411;-76
2022/08/20 12:56:09;;;;;;;1.45;1.25;;;;;;;27.19;47.84;100276.81;10171965;27;65077;-76
2022/08/20 13:01:01;;;;;;;1.50;1.10;;;;;;;27.18;47.89;100278.78;10173819;27;66222;-76
2022/08/20 13:05:53;;;;;;;1.85;1.30;;;;;;;27.22;47.40;100267.72;10171700;27;66375;-76
2022/08/20 13:10:47;;;;;;;1.85;1.40;;;;;;;27.19;47.83;100265.66;10171296;27;65514;-76
2022/08/20 13:15:39;;;;;;;1.92;1.30;;;;;;;27.18;47.83;100264.84;10171938;27;66384;-76
2022/08/20 13:20:31;;;;;;;2.03;1.30;;;;;;;27.21;47.39;100266.09;10172903;27;66395;-76
2022/08/20 13:25:24;;;;;;;1.58;1.20;;;;;;;27.22;47.67;100260.16;10170655;27;66472;-76
2022/08/20 13:30:18;;;;;;;1.17;1.08;;;;;;;27.22;47.54;100262.94;10172212;27;65626;-76
2022/08/20 13:35:11;;;;;;;1.10;1.00;;;;;;;27.22;47.29;100254.59;10173470;27;66486;-76
2022/08/20 13:40:04;;;;;;;2.70;1.00;;;;;;;27.20;47.42;100243.00;10172055;27;65753;-77
2022/08/20 13:44:57;;;;;;;0.95;0.93;;;;;;;27.22;47.65;100246.25;10170988;27;66549;-76
2022/08/20 13:49:54;;;;;;;0.80;0.80;;;;;;;27.21;47.24;100243.81;10169634;27;65650;-77
2022/08/20 13:54:47;;;;;;;1.15;1.00;;;;;;;27.24;47.03;100246.72;10170350;27;66493;-76
2022/08/20 13:59:39;;;;;;;1.13;1.02;;;;;;;27.23;47.08;100247.88;10171931;27;65621;-76
2022/08/20 14:04:31;;;;;;;1.08;1.02;;;;;;;27.24;47.19;100241.13;10172508;27;66351;-77
2022/08/20 14:09:24;;;;;;;1.40;0.93;;;;;;;27.23;47.21;100241.50;10171301;27;65675;-77
2022/08/20 14:14:16;;;;;;;2.10;1.25;;;;;;;27.24;47.48;100243.13;10172987;27;66420;-77
2022/08/20 14:19:09;;;;;;;1.25;1.15;;;;;;;27.24;47.24;100249.50;10170612;27;66919;-77
2022/08/20 14:24:01;;;;;;;1.02;0.90;;;;;;;27.24;47.28;100245.91;10170509;27;66246;-77
2022/08/20 14:28:55;;;;;;;2.17;1.20;;;;;;;27.23;47.24;100247.88;10167949;27;66388;-77
2022/08/20 14:33:47;;;;;;;0.90;0.90;;;;;;;27.24;47.04;100252.28;10169260;27;66325;-77
2022/08/20 14:38:43;;;;;;;0.90;0.90;;;;;;;27.22;47.00;100254.59;10167475;27;65531;-77
2022/08/20 14:43:35;;;;;;;0.93;0.93;;;;;;;27.23;47.31;100259.00;10169114;27;65728;-77
2022/08/20 14:48:29;;;;;;;0.90;0.90;;;;;;;27.23;47.01;100258.19;10167730;27;66464;-77
2022/08/20 14:53:21;;;;;;;1.00;0.90;;;;;;;27.23;47.01;100253.44;10168411;27;66592;-76
2022/08/20 14:58:13;;;;;;;1.10;1.00;;;;;;;27.22;46.95;100245.44;10168119;27;66343;-76
2022/08/20 15:03:06;;;;;;;0.93;0.88;;;;;;;27.21;46.84;100250.19;10169802;27;66482;-77
2022/08/20 15:07:59;;;;;;;1.40;0.98;;;;;;;27.21;47.20;100246.59;10167964;27;65713;-77
2022/08/20 15:12:51;;;;;;;1.35;1.10;;;;;;;27.22;46.74;100249.03;10168641;27;65437;-77
2022/08/20 15:17:45;;;;;;;1.58;1.20;;;;;;;27.22;46.95;100249.03;10167452;27;66287;-77
2022/08/20 15:22:37;;;;;;;1.20;1.10;;;;;;;27.20;47.03;100251.38;10168906;27;65686;-77
2022/08/20 15:27:30;;;;;;;1.50;1.10;;;;;;;27.21;46.74;100249.38;10167066;28;65606;-77
2022/08/20 15:32:22;;;;;;;1.20;1.10;;;;;;;27.21;46.55;100252.19;10167488;27;66394;-77
2022/08/20 15:37:16;;;;;;;1.05;0.90;;;;;;;27.19;46.80;100252.56;10166988;27;65582;-77
2022/08/20 15:42:08;;;;;;;1.08;0.98;;;;;;;27.21;46.58;100252.19;10167874;27;66836;-77
2022/08/20 15:47:12;;;;;;;1.23;1.10;;;;;;;27.19;46.28;100252.56;10168733;27;66327;-76
2022/08/20 15:52:05;;;;;;;0.98;0.88;;;;;;;27.21;46.33;100254.97;10167196;27;65602;-77
2022/08/20 15:57:00;;;;;;;1.92;1.10;;;;;;;27.20;46.51;100256.94;10166918;27;65493;-77
2022/08/20 16:01:58;;;;;;;1.20;1.10;;;;;;;27.21;46.17;100264.13;10166924;27;65583;-77
2022/08/20 16:06:52;;;;;;;1.05;0.90;;;;;;;27.20;46.25;100261.69;10170189;27;65569;-77
2022/08/20 16:11:48;;;;;;;0.95;0.90;;;;;;;27.20;46.36;100253.34;10172880;27;65409;-67
2022/08/20 16:16:42;;;;;;;1.25;0.98;;;;;;;27.18;46.12;100258.47;10174719;27;66371;-68
2022/08/20 16:21:36;;;;;;;1.00;1.00;;;;;;;27.18;46.32;100262.06;10173091;27;65686;-67
2022/08/20 16:26:52;;;;;;;0.90;0.90;;;;;;;27.17;45.89;100266.03;10172826;27;65523;-67
2022/08/20 16:31:46;;;;;;;2.88;1.08;;;;;;;27.26;45.36;100274.19;10205585;27;66488;-73
2022/08/20 16:36:40;;;;;;;2.38;1.50;;;;;;;27.27;43.88;100270.25;10201740;27;66610;-74
2022/08/20 16:41:34;;;;;;;1.45;1.30;;;;;;;27.31;43.54;100280.28;10211617;27;65497;-73
2022/08/20 16:46:28;;;;;;;4.30;1.70;;;;;;;27.36;42.45;100287.53;10210473;27;66492;-72
2022/08/20 16:51:22;;;;;;;4.40;1.70;;;;;;;27.31;43.08;100291.41;10209622;27;66599;-71
2022/08/20 16:56:15;;;;;;;2.13;1.52;;;;;;;27.30;41.70;100300.13;10209652;27;66378;-69
2022/08/20 17:01:10;;;;;;;4.07;1.88;;;;;;;27.31;42.31;100301.75;10211247;27;66228;-69
2022/08/20 17:06:02;;;;;;;4.88;2.67;;;;;;;27.33;41.22;100302.19;10204616;27;65729;-70
2022/08/20 17:10:57;;;;;;;3.45;2.50;;;;;;;27.30;41.24;100302.91;10204575;27;65309;-72
2022/08/20 19:16:16;;;;;;;3.60;3.15;;;;;;;26.41;39.04;100425.72;10183502;27;66067;-70
2022/08/20 19:21:09;;;;;;;8.68;3.30;;;;;;;26.47;39.30;100429.03;10250618;27;65849;-69
2022/08/20 19:26:03;;;;;;;6.03;3.00;;;;;;;26.33;39.39;100423.88;10250409;27;66290;-72
2022/08/20 19:30:56;;;;;;;5.00;3.53;;;;;;;26.47;39.26;100429.03;10244896;27;65825;-73
2022/08/20 19:35:49;;;;;;;4.50;3.05;;;;;;;26.40;39.47;100428.84;10241260;27;66136;-72
2022/08/20 19:40:42;;;;;;;5.53;3.30;;;;;;;26.32;39.82;100435.34;10242154;27;66374;-70
2022/08/20 19:45:37;;;;;;;4.75;3.50;;;;;;;26.27;40.12;100442.78;10246353;27;65499;-69
2022/08/20 19:50:32;;;;;;;4.07;3.30;;;;;;;26.23;39.93;100441.03;10250813;27;65620;-69
2022/08/20 19:55:28;;;;;;;5.43;3.45;;;;;;;26.22;40.10;100437.44;10232597;27;64895;-70
2022/08/20 20:00:21;;;;;;;5.00;3.35;;;;;;;26.17;39.95;100442.41;10217118;27;65628;-70
2022/08/20 20:05:13;;;;;;;4.18;3.47;;;;;;;26.15;40.40;100444.75;10212728;27;65626;-70
2022/08/20 20:10:07;;;;;;;6.10;3.85;;;;;;;26.12;40.46;100454.59;10231351;27;65589;-70
2022/08/20 20:15:00;;;;;;;5.55;3.70;;;;;;;26.11;40.21;100450.19;10218670;27;66424;-70
2022/08/20 20:19:55;;;;;;;6.68;3.70;;;;;;;26.10;40.55;100443.03;10207196;27;65567;-71
2022/08/20 20:24:49;;;;;;;4.50;3.65;;;;;;;26.10;40.69;100453.31;10205795;27;65520;-70
2022/08/20 20:29:41;;;;;;;5.55;3.65;;;;;;;26.09;40.64;100441.41;10213551;27;66321;-69
2022/08/20 20:34:37;;;;;;;5.10;3.80;;;;;;;26.06;40.76;100444.06;10246757;27;66309;-70
2022/08/20 20:39:31;;;;;;;4.70;3.72;;;;;;;26.01;40.87;100436.78;10248514;27;65180;-71
2022/08/20 20:44:24;;;;;;;4.13;3.70;;;;;;;26.01;40.64;100438.78;10245870;27;65612;-69
2022/08/20 20:49:21;;;;;;;5.90;3.92;;;;;;;25.93;40.68;100437.75;10246615;27;66290;-69
2022/08/20 20:54:24;;;;;;;5.07;4.07;;;;;;;25.95;40.80;100432.63;10250507;27;66335;-70
2022/08/20 20:59:16;;;;;;;6.97;3.72;;;;;;;25.96;40.65;100439.00;10253580;27;65572;-70
2022/08/20 21:04:08;;;;;;;4.60;3.75;;;;;;;25.94;40.83;100450.44;10253483;27;66854;-70
2022/08/20 21:09:00;;;;;;;4.60;3.65;;;;;;;25.90;40.60;100443.97;10253809;27;66414;-70
2022/08/20 21:13:54;;;;;;;4.90;3.53;;;;;;;25.93;40.69;100445.25;10226621;27;66424;-70
2022/08/20 21:18:47;;;;;;;5.90;3.50;;;;;;;25.87;40.81;100447.44;10252159;27;66366;-70
2022/08/20 21:23:39;;;;;;;5.88;3.40;;;;;;;25.84;40.97;100446.19;10252821;27;66308;-70
2022/08/20 21:28:31;;;;;;;4.95;3.42;;;;;;;25.80;41.03;100447.22;10253984;27;66441;-70
